sensor_id;sensor_type;location;lat;lon;timestamp;temperature;humidity
1025;DHT22;501;48.214;11.350;2022-10-31T00:02:18;11.20;66.50
1025;DHT22;501;48.214;11.350;2022-10-31T00:04:44;11.20;66.20
1025;DHT22;501;48.214;11.350;2022-10-31T00:07:10;11.10;67.00
1025;DHT22;501;48.214;11.350;2022-10-31T00:09:35;11.10;66.50
1025;DHT22;501;48.214;11.350;2022-10-31T00:12:01;11.10;66.00
1025;DHT22;501;48.214;11.350;2022-10-31T00:16:57;11.10;65.30
1025;DHT22;501;48.214;11.350;2022-10-31T00:19:22;11.10;66.20
1025;DHT22;501;48.214;11.350;2022-10-31T00:21:48;11.10;66.40
1025;DHT22;501;48.214;11.350;2022-10-31T00:24:13;11.00;66.40
1025;DHT22;501;48.214;11.350;2022-10-31T00:26:39;11.00;66.80
1025;DHT22;501;48.214;11.350;2022-10-31T00:29:05;11.00;66.10
1025;DHT22;501;48.214;11.350;2022-10-31T00:31:30;11.00;65.90
1025;DHT22;501;48.214;11.350;2022-10-31T00:33:57;10.90;67.10
1025;DHT22;501;48.214;11.350;2022-10-31T00:36:23;10.90;66.80
1025;DHT22;501;48.214;11.350;2022-10-31T00:38:51;10.90;68.00
1025;DHT22;501;48.214;11.350;2022-10-31T00:41:17;10.90;68.10
1025;DHT22;501;48.214;11.350;2022-10-31T00:43:43;10.80;68.60
1025;DHT22;501;48.214;11.350;2022-10-31T00:46:10;10.80;68.10
1025;DHT22;501;48.214;11.350;2022-10-31T00:48:36;10.80;67.00
1025;DHT22;501;48.214;11.350;2022-10-31T00:51:04;10.80;66.70
1025;DHT22;501;48.214;11.350;2022-10-31T00:53:30;10.80;66.70
1025;DHT22;501;48.214;11.350;2022-10-31T00:55:56;10.80;66.70
1025;DHT22;501;48.214;11.350;2022-10-31T00:58:22;10.80;66.70
1025;DHT22;501;48.214;11.350;2022-10-31T01:00:48;10.80;66.70
1025;DHT22;501;48.214;11.350;2022-10-31T01:03:23;10.80;66.70
1025;DHT22;501;48.214;11.350;2022-10-31T01:05:57;10.80;66.70
1025;DHT22;501;48.214;11.350;2022-10-31T01:08:26;10.80;66.70
1025;DHT22;501;48.214;11.350;2022-10-31T01:11:19;10.80;66.70
1025;DHT22;501;48.214;11.350;2022-10-31T01:13:45;10.70;66.70
1025;DHT22;501;48.214;11.350;2022-10-31T01:16:14;10.70;67.00
1025;DHT22;501;48.214;11.350;2022-10-31T01:18:39;10.70;66.60
1025;DHT22;501;48.214;11.350;2022-10-31T01:21:07;10.60;66.60
1025;DHT22;501;48.214;11.350;2022-10-31T01:23:33;10.60;66.60
1025;DHT22;501;48.214;11.350;2022-10-31T01:26:14;10.60;66.40
1025;DHT22;501;48.214;11.350;2022-10-31T01:28:45;10.60;66.40
1025;DHT22;501;48.214;11.350;2022-10-31T01:31:12;10.50;66.40
1025;DHT22;501;48.214;11.350;2022-10-31T01:33:38;10.50;66.40
1025;DHT22;501;48.214;11.350;2022-10-31T01:36:18;10.50;65.20
1025;DHT22;501;48.214;11.350;2022-10-31T01:38:45;10.40;64.50
1025;DHT22;501;48.214;11.350;2022-10-31T01:41:14;10.40;64.20
1025;DHT22;501;48.214;11.350;2022-10-31T01:43:49;10.40;64.10
1025;DHT22;501;48.214;11.350;2022-10-31T01:46:19;10.40;63.50
1025;DHT22;501;48.214;11.350;2022-10-31T01:48:47;10.40;64.50
1025;DHT22;501;48.214;11.350;2022-10-31T01:51:14;10.30;64.30
1025;DHT22;501;48.214;11.350;2022-10-31T01:53:42;10.30;64.20
1025;DHT22;501;48.214;11.350;2022-10-31T01:56:10;10.30;63.20
1025;DHT22;501;48.214;11.350;2022-10-31T01:58:37;10.30;62.90
1025;DHT22;501;48.214;11.350;2022-10-31T02:01:03;10.30;63.00
1025;DHT22;501;48.214;11.350;2022-10-31T02:03:29;10.30;63.10
1025;DHT22;501;48.214;11.350;2022-10-31T02:05:57;10.30;63.50
1025;DHT22;501;48.214;11.350;2022-10-31T02:08:30;10.20;62.80
1025;DHT22;501;48.214;11.350;2022-10-31T02:10:58;10.20;63.30
1025;DHT22;501;48.214;11.350;2022-10-31T02:13:26;10.20;63.30
1025;DHT22;501;48.214;11.350;2022-10-31T02:15:55;10.10;63.60
1025;DHT22;501;48.214;11.350;2022-10-31T02:18:22;10.10;64.60
1025;DHT22;501;48.214;11.350;2022-10-31T02:26:45;10.10;66.50
1025;DHT22;501;48.214;11.350;2022-10-31T02:34:51;10.10;68.10
1025;DHT22;501;48.214;11.350;2022-10-31T02:40:05;10.10;68.50
1025;DHT22;501;48.214;11.350;2022-10-31T02:42:45;10.10;68.40
1025;DHT22;501;48.214;11.350;2022-10-31T02:45:29;10.10;68.70
1025;DHT22;501;48.214;11.350;2022-10-31T02:48:00;10.10;68.50
1025;DHT22;501;48.214;11.350;2022-10-31T02:50:33;10.10;67.30
1025;DHT22;501;48.214;11.350;2022-10-31T02:53:00;10.10;66.90
1025;DHT22;501;48.214;11.350;2022-10-31T02:57:54;10.10;66.10
1025;DHT22;501;48.214;11.350;2022-10-31T03:00:21;10.10;66.70
1025;DHT22;501;48.214;11.350;2022-10-31T03:03:08;10.00;67.20
1025;DHT22;501;48.214;11.350;2022-10-31T03:06:00;10.00;67.20
1025;DHT22;501;48.214;11.350;2022-10-31T03:11:06;10.10;66.10
1025;DHT22;501;48.214;11.350;2022-10-31T03:13:48;10.00;65.60
1025;DHT22;501;48.214;11.350;2022-10-31T03:18:53;10.00;65.60
1025;DHT22;501;48.214;11.350;2022-10-31T03:21:36;10.00;66.60
1025;DHT22;501;48.214;11.350;2022-10-31T03:24:05;10.00;67.60
1025;DHT22;501;48.214;11.350;2022-10-31T03:26:32;9.90;68.60
1025;DHT22;501;48.214;11.350;2022-10-31T03:29:03;9.90;68.50
1025;DHT22;501;48.214;11.350;2022-10-31T03:31:37;9.90;68.10
1025;DHT22;501;48.214;11.350;2022-10-31T03:34:05;9.90;67.70
1025;DHT22;501;48.214;11.350;2022-10-31T03:36:32;9.90;67.40
1025;DHT22;501;48.214;11.350;2022-10-31T03:39:02;9.80;66.80
1025;DHT22;501;48.214;11.350;2022-10-31T03:41:32;9.80;66.20
1025;DHT22;501;48.214;11.350;2022-10-31T03:44:03;9.80;66.80
1025;DHT22;501;48.214;11.350;2022-10-31T03:46:31;9.80;68.10
1025;DHT22;501;48.214;11.350;2022-10-31T03:48:57;9.70;68.40
1025;DHT22;501;48.214;11.350;2022-10-31T03:51:36;9.70;67.50
1025;DHT22;501;48.214;11.350;2022-10-31T03:54:37;9.70;66.70
1025;DHT22;501;48.214;11.350;2022-10-31T03:57:29;9.70;67.10
1025;DHT22;501;48.214;11.350;2022-10-31T04:00:09;9.70;66.70
1025;DHT22;501;48.214;11.350;2022-10-31T04:02:40;9.70;66.70
1025;DHT22;501;48.214;11.350;2022-10-31T04:05:08;9.60;66.60
1025;DHT22;501;48.214;11.350;2022-10-31T04:07:39;9.60;67.30
1025;DHT22;501;48.214;11.350;2022-10-31T04:10:10;9.60;66.60
1025;DHT22;501;48.214;11.350;2022-10-31T04:12:38;9.60;65.80
1025;DHT22;501;48.214;11.350;2022-10-31T04:15:06;9.60;65.70
1025;DHT22;501;48.214;11.350;2022-10-31T04:17:36;9.60;66.60
1025;DHT22;501;48.214;11.350;2022-10-31T04:20:05;9.50;65.70
1025;DHT22;501;48.214;11.350;2022-10-31T04:22:31;9.50;66.50
1025;DHT22;501;48.214;11.350;2022-10-31T04:24:56;9.50;65.90
1025;DHT22;501;48.214;11.350;2022-10-31T04:27:22;9.50;66.50
1025;DHT22;501;48.214;11.350;2022-10-31T04:29:47;9.50;66.50
1025;DHT22;501;48.214;11.350;2022-10-31T04:32:13;9.50;66.50
1025;DHT22;501;48.214;11.350;2022-10-31T04:34:39;9.50;66.20
1025;DHT22;501;48.214;11.350;2022-10-31T04:37:04;9.50;65.30
1025;DHT22;501;48.214;11.350;2022-10-31T04:39:30;9.50;65.80
1025;DHT22;501;48.214;11.350;2022-10-31T04:41:56;9.50;66.00
1025;DHT22;501;48.214;11.350;2022-10-31T04:44:21;9.50;65.40
1025;DHT22;501;48.214;11.350;2022-10-31T04:46:47;9.50;65.50
1025;DHT22;501;48.214;11.350;2022-10-31T04:49:13;9.40;64.90
1025;DHT22;501;48.214;11.350;2022-10-31T04:51:38;9.50;65.30
1025;DHT22;501;48.214;11.350;2022-10-31T04:54:04;9.40;66.70
1025;DHT22;501;48.214;11.350;2022-10-31T04:56:30;9.40;67.40
1025;DHT22;501;48.214;11.350;2022-10-31T04:58:55;9.40;66.50
1025;DHT22;501;48.214;11.350;2022-10-31T05:01:21;9.40;67.00
1025;DHT22;501;48.214;11.350;2022-10-31T05:03:47;9.40;66.50
1025;DHT22;501;48.214;11.350;2022-10-31T05:06:12;9.40;66.50
1025;DHT22;501;48.214;11.350;2022-10-31T05:08:38;9.40;66.80
1025;DHT22;501;48.214;11.350;2022-10-31T05:11:04;9.40;66.50
1025;DHT22;501;48.214;11.350;2022-10-31T05:13:30;9.30;66.40
1025;DHT22;501;48.214;11.350;2022-10-31T05:15:56;9.40;66.40
1025;DHT22;501;48.214;11.350;2022-10-31T05:18:22;9.30;66.40
1025;DHT22;501;48.214;11.350;2022-10-31T05:20:48;9.30;66.40
1025;DHT22;501;48.214;11.350;2022-10-31T05:23:14;9.30;66.20
1025;DHT22;501;48.214;11.350;2022-10-31T05:25:40;9.30;66.10
1025;DHT22;501;48.214;11.350;2022-10-31T05:28:06;9.30;65.30
1025;DHT22;501;48.214;11.350;2022-10-31T05:30:33;9.30;64.30
1025;DHT22;501;48.214;11.350;2022-10-31T05:32:59;9.30;64.60
1025;DHT22;501;48.214;11.350;2022-10-31T05:35:29;9.20;64.60
1025;DHT22;501;48.214;11.350;2022-10-31T05:37:56;9.20;64.10
1025;DHT22;501;48.214;11.350;2022-10-31T05:40:23;9.20;65.00
1025;DHT22;501;48.214;11.350;2022-10-31T05:42:54;9.10;64.90
1025;DHT22;501;48.214;11.350;2022-10-31T05:45:20;9.10;64.30
1025;DHT22;501;48.214;11.350;2022-10-31T05:48:12;9.10;64.10
1025;DHT22;501;48.214;11.350;2022-10-31T05:50:38;9.10;64.50
1025;DHT22;501;48.214;11.350;2022-10-31T05:53:05;9.10;64.40
1025;DHT22;501;48.214;11.350;2022-10-31T05:55:31;9.10;64.40
1025;DHT22;501;48.214;11.350;2022-10-31T05:57:57;9.00;63.70
1025;DHT22;501;48.214;11.350;2022-10-31T06:00:24;9.00;64.10
1025;DHT22;501;48.214;11.350;2022-10-31T06:03:01;9.00;64.60
1025;DHT22;501;48.214;11.350;2022-10-31T06:05:28;9.00;65.10
1025;DHT22;501;48.214;11.350;2022-10-31T06:07:53;8.90;65.60
1025;DHT22;501;48.214;11.350;2022-10-31T06:10:19;8.90;66.10
1025;DHT22;501;48.214;11.350;2022-10-31T06:12:46;8.80;67.10
1025;DHT22;501;48.214;11.350;2022-10-31T06:15:12;8.80;67.50
1025;DHT22;501;48.214;11.350;2022-10-31T06:17:38;8.80;68.20
1025;DHT22;501;48.214;11.350;2022-10-31T06:20:04;8.80;68.50
1025;DHT22;501;48.214;11.350;2022-10-31T06:22:30;8.80;69.00
1025;DHT22;501;48.214;11.350;2022-10-31T06:24:55;8.80;69.10
1025;DHT22;501;48.214;11.350;2022-10-31T06:27:21;8.80;69.10
1025;DHT22;501;48.214;11.350;2022-10-31T06:29:47;8.80;68.40
1025;DHT22;501;48.214;11.350;2022-10-31T06:32:15;8.80;68.30
1025;DHT22;501;48.214;11.350;2022-10-31T06:34:42;8.90;68.40
1025;DHT22;501;48.214;11.350;2022-10-31T06:37:09;8.80;68.50
1025;DHT22;501;48.214;11.350;2022-10-31T06:39:34;8.90;68.30
1025;DHT22;501;48.214;11.350;2022-10-31T06:42:00;8.90;68.30
1025;DHT22;501;48.214;11.350;2022-10-31T06:44:26;8.90;68.70
1025;DHT22;501;48.214;11.350;2022-10-31T06:46:52;8.90;68.70
1025;DHT22;501;48.214;11.350;2022-10-31T06:49:17;9.00;69.10
1025;DHT22;501;48.214;11.350;2022-10-31T06:51:43;9.00;69.10
1025;DHT22;501;48.214;11.350;2022-10-31T06:54:12;9.00;69.20
1025;DHT22;501;48.214;11.350;2022-10-31T06:56:37;9.10;69.70
1025;DHT22;501;48.214;11.350;2022-10-31T06:59:03;9.10;70.60
1025;DHT22;501;48.214;11.350;2022-10-31T07:01:28;9.20;71.10
1025;DHT22;501;48.214;11.350;2022-10-31T07:03:54;9.20;72.20
1025;DHT22;501;48.214;11.350;2022-10-31T07:06:19;9.20;73.70
1025;DHT22;501;48.214;11.350;2022-10-31T07:08:45;9.30;74.70
1025;DHT22;501;48.214;11.350;2022-10-31T07:11:11;9.30;76.30
1025;DHT22;501;48.214;11.350;2022-10-31T07:13:36;9.40;76.20
1025;DHT22;501;48.214;11.350;2022-10-31T07:16:04;9.40;75.90
1025;DHT22;501;48.214;11.350;2022-10-31T07:18:30;9.50;77.20
1025;DHT22;501;48.214;11.350;2022-10-31T07:20:55;9.50;78.30
1025;DHT22;501;48.214;11.350;2022-10-31T07:23:21;9.60;79.20
1025;DHT22;501;48.214;11.350;2022-10-31T07:25:47;9.60;79.00
1025;DHT22;501;48.214;11.350;2022-10-31T07:28:13;9.70;79.00
1025;DHT22;501;48.214;11.350;2022-10-31T07:30:39;9.70;78.80
1025;DHT22;501;48.214;11.350;2022-10-31T07:33:05;9.80;79.00
1025;DHT22;501;48.214;11.350;2022-10-31T07:35:32;9.80;79.30
1025;DHT22;501;48.214;11.350;2022-10-31T07:38:05;9.90;81.20
1025;DHT22;501;48.214;11.350;2022-10-31T07:40:31;10.00;80.30
1025;DHT22;501;48.214;11.350;2022-10-31T07:42:57;10.00;80.50
1025;DHT22;501;48.214;11.350;2022-10-31T07:45:23;10.10;82.30
1025;DHT22;501;48.214;11.350;2022-10-31T07:47:52;10.20;83.10
1025;DHT22;501;48.214;11.350;2022-10-31T07:50:21;10.20;83.30
1025;DHT22;501;48.214;11.350;2022-10-31T07:52:46;10.30;83.10
1025;DHT22;501;48.214;11.350;2022-10-31T07:55:13;10.40;84.40
1025;DHT22;501;48.214;11.350;2022-10-31T07:57:39;10.40;85.70
1025;DHT22;501;48.214;11.350;2022-10-31T08:00:09;10.50;86.40
1025;DHT22;501;48.214;11.350;2022-10-31T08:02:35;10.60;86.90
1025;DHT22;501;48.214;11.350;2022-10-31T08:05:00;10.60;87.60
1025;DHT22;501;48.214;11.350;2022-10-31T08:07:28;10.70;88.90
1025;DHT22;501;48.214;11.350;2022-10-31T08:09:54;10.80;89.30
1025;DHT22;501;48.214;11.350;2022-10-31T08:12:20;10.90;90.10
1025;DHT22;501;48.214;11.350;2022-10-31T08:14:46;10.90;91.00
1025;DHT22;501;48.214;11.350;2022-10-31T08:17:12;11.00;92.50
1025;DHT22;501;48.214;11.350;2022-10-31T08:19:37;11.10;93.30
1025;DHT22;501;48.214;11.350;2022-10-31T08:22:03;11.20;94.00
1025;DHT22;501;48.214;11.350;2022-10-31T08:24:28;11.30;93.40
1025;DHT22;501;48.214;11.350;2022-10-31T08:26:54;11.40;93.20
1025;DHT22;501;48.214;11.350;2022-10-31T08:29:19;11.50;93.60
1025;DHT22;501;48.214;11.350;2022-10-31T08:31:45;11.60;93.90
1025;DHT22;501;48.214;11.350;2022-10-31T08:34:11;11.70;94.20
1025;DHT22;501;48.214;11.350;2022-10-31T08:36:36;11.80;94.20
1025;DHT22;501;48.214;11.350;2022-10-31T08:39:02;11.90;93.40
1025;DHT22;501;48.214;11.350;2022-10-31T08:41:29;12.00;92.90
1025;DHT22;501;48.214;11.350;2022-10-31T08:43:54;12.10;92.60
1025;DHT22;501;48.214;11.350;2022-10-31T08:46:20;12.20;92.20
1025;DHT22;501;48.214;11.350;2022-10-31T08:48:48;12.30;91.50
1025;DHT22;501;48.214;11.350;2022-10-31T08:51:13;12.40;91.10
1025;DHT22;501;48.214;11.350;2022-10-31T08:53:39;12.40;90.80
1025;DHT22;501;48.214;11.350;2022-10-31T08:56:05;12.50;90.40
1025;DHT22;501;48.214;11.350;2022-10-31T08:58:30;12.50;89.90
1025;DHT22;501;48.214;11.350;2022-10-31T09:00:59;12.60;89.70
1025;DHT22;501;48.214;11.350;2022-10-31T09:03:27;12.70;90.10
1025;DHT22;501;48.214;11.350;2022-10-31T09:05:58;12.70;90.30
1025;DHT22;501;48.214;11.350;2022-10-31T09:08:24;12.80;90.60
1025;DHT22;501;48.214;11.350;2022-10-31T09:10:50;12.90;91.00
1025;DHT22;501;48.214;11.350;2022-10-31T09:13:18;13.00;91.10
1025;DHT22;501;48.214;11.350;2022-10-31T09:15:45;13.00;90.90
1025;DHT22;501;48.214;11.350;2022-10-31T09:18:13;13.10;91.40
1025;DHT22;501;48.214;11.350;2022-10-31T09:20:39;13.20;91.90
1025;DHT22;501;48.214;11.350;2022-10-31T09:23:10;13.30;91.10
1025;DHT22;501;48.214;11.350;2022-10-31T09:25:37;13.30;90.90
1025;DHT22;501;48.214;11.350;2022-10-31T09:28:04;13.40;90.50
1025;DHT22;501;48.214;11.350;2022-10-31T09:30:32;13.50;90.10
1025;DHT22;501;48.214;11.350;2022-10-31T09:33:04;13.60;90.00
1025;DHT22;501;48.214;11.350;2022-10-31T09:35:30;13.70;90.50
1025;DHT22;501;48.214;11.350;2022-10-31T09:38:07;13.80;90.90
1025;DHT22;501;48.214;11.350;2022-10-31T09:40:39;13.90;91.70
1025;DHT22;501;48.214;11.350;2022-10-31T09:46:02;14.20;93.80
1025;DHT22;501;48.214;11.350;2022-10-31T09:51:08;14.40;91.30
1025;DHT22;501;48.214;11.350;2022-10-31T09:56:07;14.60;85.00
1025;DHT22;501;48.214;11.350;2022-10-31T09:58:40;14.70;81.60
1025;DHT22;501;48.214;11.350;2022-10-31T10:01:06;14.90;77.70
1025;DHT22;501;48.214;11.350;2022-10-31T10:03:44;14.90;75.50
1025;DHT22;501;48.214;11.350;2022-10-31T10:06:17;15.00;74.30
1025;DHT22;501;48.214;11.350;2022-10-31T10:08:44;15.10;73.30
1025;DHT22;501;48.214;11.350;2022-10-31T10:17:17;15.40;72.70
1025;DHT22;501;48.214;11.350;2022-10-31T10:19:56;15.50;71.20
1025;DHT22;501;48.214;11.350;2022-10-31T10:25:38;15.70;68.10
1025;DHT22;501;48.214;11.350;2022-10-31T10:30:56;15.90;67.30
1025;DHT22;501;48.214;11.350;2022-10-31T10:33:46;16.00;66.30
1025;DHT22;501;48.214;11.350;2022-10-31T10:36:20;16.20;65.70
1025;DHT22;501;48.214;11.350;2022-10-31T10:38:53;16.30;61.60
1025;DHT22;501;48.214;11.350;2022-10-31T10:41:22;16.40;63.70
1025;DHT22;501;48.214;11.350;2022-10-31T10:43:52;16.50;62.50
1025;DHT22;501;48.214;11.350;2022-10-31T10:49:38;16.80;61.70
1025;DHT22;501;48.214;11.350;2022-10-31T10:52:43;16.90;61.40
1025;DHT22;501;48.214;11.350;2022-10-31T10:57:56;17.10;60.50
1025;DHT22;501;48.214;11.350;2022-10-31T11:00:32;17.10;59.90
1025;DHT22;501;48.214;11.350;2022-10-31T11:02:59;17.20;59.90
1025;DHT22;501;48.214;11.350;2022-10-31T11:08:35;17.30;58.10
1025;DHT22;501;48.214;11.350;2022-10-31T11:13:36;17.50;57.70
1025;DHT22;501;48.214;11.350;2022-10-31T11:16:14;17.50;57.80
1025;DHT22;501;48.214;11.350;2022-10-31T11:18:45;17.60;57.50
1025;DHT22;501;48.214;11.350;2022-10-31T11:21:21;17.70;58.30
1025;DHT22;501;48.214;11.350;2022-10-31T11:23:47;17.80;58.00
1025;DHT22;501;48.214;11.350;2022-10-31T11:26:20;17.90;56.50
1025;DHT22;501;48.214;11.350;2022-10-31T11:28:56;17.90;57.30
1025;DHT22;501;48.214;11.350;2022-10-31T11:31:23;18.10;56.60
1025;DHT22;501;48.214;11.350;2022-10-31T11:33:59;18.10;55.50
1025;DHT22;501;48.214;11.350;2022-10-31T11:36:29;18.20;54.90
1025;DHT22;501;48.214;11.350;2022-10-31T11:38:55;18.30;54.80
1025;DHT22;501;48.214;11.350;2022-10-31T11:41:32;18.30;53.80
1025;DHT22;501;48.214;11.350;2022-10-31T11:44:04;18.40;53.40
1025;DHT22;501;48.214;11.350;2022-10-31T11:46:35;18.40;52.30
1025;DHT22;501;48.214;11.350;2022-10-31T11:49:03;18.50;50.70
1025;DHT22;501;48.214;11.350;2022-10-31T11:51:33;18.60;50.90
1025;DHT22;501;48.214;11.350;2022-10-31T11:54:00;18.50;49.60
1025;DHT22;501;48.214;11.350;2022-10-31T11:56:37;18.60;49.70
1025;DHT22;501;48.214;11.350;2022-10-31T11:59:05;18.60;49.70
1025;DHT22;501;48.214;11.350;2022-10-31T12:01:32;18.60;51.00
1025;DHT22;501;48.214;11.350;2022-10-31T12:04:06;18.60;50.10
1025;DHT22;501;48.214;11.350;2022-10-31T12:06:37;18.70;49.50
1025;DHT22;501;48.214;11.350;2022-10-31T12:09:21;18.70;48.80
1025;DHT22;501;48.214;11.350;2022-10-31T12:15:19;18.70;47.70
1025;DHT22;501;48.214;11.350;2022-10-31T12:18:35;18.80;48.20
1025;DHT22;501;48.214;11.350;2022-10-31T12:21:34;18.80;48.30
1025;DHT22;501;48.214;11.350;2022-10-31T12:27:09;18.80;49.10
1025;DHT22;501;48.214;11.350;2022-10-31T12:32:37;18.90;48.50
1025;DHT22;501;48.214;11.350;2022-10-31T12:37:59;19.10;49.90
1025;DHT22;501;48.214;11.350;2022-10-31T12:40:59;19.30;51.80
1025;DHT22;501;48.214;11.350;2022-10-31T12:43:52;19.70;50.10
1025;DHT22;501;48.214;11.350;2022-10-31T12:46:24;20.00;48.70
1025;DHT22;501;48.214;11.350;2022-10-31T12:57:27;21.80;40.00
1025;DHT22;501;48.214;11.350;2022-10-31T13:00:24;22.30;39.60
1025;DHT22;501;48.214;11.350;2022-10-31T13:03:44;23.10;37.50
1025;DHT22;501;48.214;11.350;2022-10-31T13:05:46;23.70;36.40
1025;DHT22;501;48.214;11.350;2022-10-31T13:08:20;24.30;33.20
1025;DHT22;501;48.214;11.350;2022-10-31T13:11:06;24.90;33.90
1025;DHT22;501;48.214;11.350;2022-10-31T13:13:40;25.20;31.40
1025;DHT22;501;48.214;11.350;2022-10-31T13:16:21;25.30;30.90
1025;DHT22;501;48.214;11.350;2022-10-31T13:18:57;25.10;30.90
1025;DHT22;501;48.214;11.350;2022-10-31T13:21:28;24.80;30.30
1025;DHT22;501;48.214;11.350;2022-10-31T13:23:58;24.40;30.70
1025;DHT22;501;48.214;11.350;2022-10-31T13:26:48;24.00;31.70
1025;DHT22;501;48.214;11.350;2022-10-31T13:29:32;23.60;32.00
1025;DHT22;501;48.214;11.350;2022-10-31T13:32:03;23.20;32.40
1025;DHT22;501;48.214;11.350;2022-10-31T13:34:42;22.90;33.40
1025;DHT22;501;48.214;11.350;2022-10-31T13:37:39;22.60;33.20
1025;DHT22;501;48.214;11.350;2022-10-31T13:45:52;21.60;35.60
1025;DHT22;501;48.214;11.350;2022-10-31T13:50:58;21.20;36.60
1025;DHT22;501;48.214;11.350;2022-10-31T14:01:33;20.70;39.30
1025;DHT22;501;48.214;11.350;2022-10-31T14:04:15;20.60;40.70
1025;DHT22;501;48.214;11.350;2022-10-31T14:09:29;20.60;40.00
1025;DHT22;501;48.214;11.350;2022-10-31T14:11:59;20.60;39.80
1025;DHT22;501;48.214;11.350;2022-10-31T14:14:33;20.50;40.00
1025;DHT22;501;48.214;11.350;2022-10-31T14:17:01;20.40;40.50
1025;DHT22;501;48.214;11.350;2022-10-31T14:19:27;20.40;40.60
1025;DHT22;501;48.214;11.350;2022-10-31T14:21:53;20.30;40.80
1025;DHT22;501;48.214;11.350;2022-10-31T14:26:59;20.10;42.00
1025;DHT22;501;48.214;11.350;2022-10-31T14:29:33;20.10;42.30
1025;DHT22;501;48.214;11.350;2022-10-31T14:34:56;19.80;43.60
1025;DHT22;501;48.214;11.350;2022-10-31T14:43:02;19.50;44.90
1025;DHT22;501;48.214;11.350;2022-10-31T14:45:56;19.50;45.70
1025;DHT22;501;48.214;11.350;2022-10-31T14:48:43;19.40;45.90
1025;DHT22;501;48.214;11.350;2022-10-31T14:51:20;19.30;46.60
1025;DHT22;501;48.214;11.350;2022-10-31T14:53:49;19.20;47.00
1025;DHT22;501;48.214;11.350;2022-10-31T14:56:27;19.20;47.20
1025;DHT22;501;48.214;11.350;2022-10-31T14:58:55;19.10;47.40
1025;DHT22;501;48.214;11.350;2022-10-31T15:01:35;19.10;47.70
1025;DHT22;501;48.214;11.350;2022-10-31T15:04:18;19.00;48.40
1025;DHT22;501;48.214;11.350;2022-10-31T15:06:50;18.90;48.50
1025;DHT22;501;48.214;11.350;2022-10-31T15:09:28;18.80;49.10
1025;DHT22;501;48.214;11.350;2022-10-31T15:11:55;18.80;49.40
1025;DHT22;501;48.214;11.350;2022-10-31T15:14:24;18.70;49.30
1025;DHT22;501;48.214;11.350;2022-10-31T15:16:51;18.70;49.80
1025;DHT22;501;48.214;11.350;2022-10-31T15:19:24;18.60;50.00
1025;DHT22;501;48.214;11.350;2022-10-31T15:21:52;18.60;50.00
1025;DHT22;501;48.214;11.350;2022-10-31T15:24:18;18.50;50.20
1025;DHT22;501;48.214;11.350;2022-10-31T15:26:46;18.50;50.40
1025;DHT22;501;48.214;11.350;2022-10-31T15:29:17;18.50;50.40
1025;DHT22;501;48.214;11.350;2022-10-31T15:32:16;18.40;50.70
1025;DHT22;501;48.214;11.350;2022-10-31T15:34:44;18.30;50.70
1025;DHT22;501;48.214;11.350;2022-10-31T15:37:12;18.30;51.20
1025;DHT22;501;48.214;11.350;2022-10-31T15:39:39;18.20;51.00
1025;DHT22;501;48.214;11.350;2022-10-31T15:42:21;18.20;51.80
1025;DHT22;501;48.214;11.350;2022-10-31T15:45:02;18.10;52.20
1025;DHT22;501;48.214;11.350;2022-10-31T15:47:31;18.00;52.80
1025;DHT22;501;48.214;11.350;2022-10-31T15:49:59;18.00;53.00
1025;DHT22;501;48.214;11.350;2022-10-31T15:52:37;18.00;53.70
1025;DHT22;501;48.214;11.350;2022-10-31T15:55:14;17.90;52.60
1025;DHT22;501;48.214;11.350;2022-10-31T15:57:45;17.90;52.70
1025;DHT22;501;48.214;11.350;2022-10-31T16:00:32;17.80;53.40
1025;DHT22;501;48.214;11.350;2022-10-31T16:03:20;17.70;54.00
1025;DHT22;501;48.214;11.350;2022-10-31T16:05:48;17.70;54.20
1025;DHT22;501;48.214;11.350;2022-10-31T16:08:31;17.60;53.90
1025;DHT22;501;48.214;11.350;2022-10-31T16:14:15;17.50;54.90
1025;DHT22;501;48.214;11.350;2022-10-31T16:16:32;17.40;54.10
1025;DHT22;501;48.214;11.350;2022-10-31T16:19:00;17.30;53.80
1025;DHT22;501;48.214;11.350;2022-10-31T16:21:34;17.20;53.90
1025;DHT22;501;48.214;11.350;2022-10-31T16:24:11;17.10;54.40
1025;DHT22;501;48.214;11.350;2022-10-31T16:26:38;17.10;54.20
1025;DHT22;501;48.214;11.350;2022-10-31T16:29:04;16.90;55.30
1025;DHT22;501;48.214;11.350;2022-10-31T16:31:39;16.80;56.50
1025;DHT22;501;48.214;11.350;2022-10-31T16:34:19;16.70;56.90
1025;DHT22;501;48.214;11.350;2022-10-31T16:36:45;16.60;57.80
1025;DHT22;501;48.214;11.350;2022-10-31T16:39:11;16.50;57.70
1025;DHT22;501;48.214;11.350;2022-10-31T16:41:41;16.40;57.10
1025;DHT22;501;48.214;11.350;2022-10-31T16:46:42;16.20;57.10
1025;DHT22;501;48.214;11.350;2022-10-31T16:49:09;16.10;58.70
1025;DHT22;501;48.214;11.350;2022-10-31T16:51:34;16.00;59.50
1025;DHT22;501;48.214;11.350;2022-10-31T16:54:00;15.90;58.60
1025;DHT22;501;48.214;11.350;2022-10-31T16:56:33;15.90;58.70
1025;DHT22;501;48.214;11.350;2022-10-31T16:59:02;15.80;58.40
1025;DHT22;501;48.214;11.350;2022-10-31T17:01:28;15.80;58.70
1025;DHT22;501;48.214;11.350;2022-10-31T17:03:54;15.60;60.00
1025;DHT22;501;48.214;11.350;2022-10-31T17:06:19;15.50;61.00
1025;DHT22;501;48.214;11.350;2022-10-31T17:08:45;15.50;62.00
1025;DHT22;501;48.214;11.350;2022-10-31T17:11:16;15.40;62.10
1025;DHT22;501;48.214;11.350;2022-10-31T17:13:43;15.30;61.80
1025;DHT22;501;48.214;11.350;2022-10-31T17:16:08;15.30;62.50
1025;DHT22;501;48.214;11.350;2022-10-31T17:18:36;15.20;60.80
1025;DHT22;501;48.214;11.350;2022-10-31T17:21:03;15.20;60.00
1025;DHT22;501;48.214;11.350;2022-10-31T17:23:30;15.10;61.10
1025;DHT22;501;48.214;11.350;2022-10-31T17:25:58;15.00;60.50
1025;DHT22;501;48.214;11.350;2022-10-31T17:28:24;15.00;62.20
1025;DHT22;501;48.214;11.350;2022-10-31T17:30:54;14.90;62.90
1025;DHT22;501;48.214;11.350;2022-10-31T17:33:20;14.80;63.00
1025;DHT22;501;48.214;11.350;2022-10-31T17:35:46;14.80;62.00
1025;DHT22;501;48.214;11.350;2022-10-31T17:38:12;14.70;61.20
1025;DHT22;501;48.214;11.350;2022-10-31T17:40:39;14.70;60.80
1025;DHT22;501;48.214;11.350;2022-10-31T17:43:07;14.60;60.80
1025;DHT22;501;48.214;11.350;2022-10-31T17:45:33;14.50;61.50
1025;DHT22;501;48.214;11.350;2022-10-31T17:47:58;14.50;60.90
1025;DHT22;501;48.214;11.350;2022-10-31T17:50:25;14.40;60.80
1025;DHT22;501;48.214;11.350;2022-10-31T17:52:51;14.40;60.50
1025;DHT22;501;48.214;11.350;2022-10-31T17:55:18;14.30;61.50
1025;DHT22;501;48.214;11.350;2022-10-31T17:57:44;14.20;62.20
1025;DHT22;501;48.214;11.350;2022-10-31T18:00:12;14.10;61.50
1025;DHT22;501;48.214;11.350;2022-10-31T18:02:39;14.10;62.60
1025;DHT22;501;48.214;11.350;2022-10-31T18:05:05;14.10;63.10
1025;DHT22;501;48.214;11.350;2022-10-31T18:07:31;14.00;62.80
1025;DHT22;501;48.214;11.350;2022-10-31T18:09:58;14.00;62.50
1025;DHT22;501;48.214;11.350;2022-10-31T18:12:24;13.90;62.90
1025;DHT22;501;48.214;11.350;2022-10-31T18:14:53;13.80;63.40
1025;DHT22;501;48.214;11.350;2022-10-31T18:17:19;13.80;62.50